Aquiraz, Brazil
Current Conditions -  °F | °C
As of 8:00 PM on Monday 22 Dec 2014 (Local Time) from SBFZ Reporting Station
Few Clouds Few Clouds  
Wind Chill: 81°   Ceiling: Unl
Heat Index: 84°   Visibility: 6mi
Dew Point: 70°   Wind: 10mph
Humidity: 70%   Direction: 80°E
Pressure: 29.88"   Gusts: NA
Location:  3.9°S, 38.39°W
Report Text: SBFZ 222300Z 08009KT 9999 FEW020 27/21 Q1012
Loading
Personal Weather Stations






























Interactive Weather Map New forecast layout! Learn more

10-Day Weather Forecast

Advertisements
Track Severe Weather on mobile